sensor_id;sensor_type;location;lat;lon;timestamp;temperature;humidity
68746;SHT31;66104;45.456;11.064;2023-05-18T00:01:43;16.76;65.08
68746;SHT31;66104;45.456;11.064;2023-05-18T00:04:22;16.77;64.91
68746;SHT31;66104;45.456;11.064;2023-05-18T00:07:04;16.80;64.81
68746;SHT31;66104;45.456;11.064;2023-05-18T00:09:43;16.85;64.39
68746;SHT31;66104;45.456;11.064;2023-05-18T00:12:23;16.86;64.20
68746;SHT31;66104;45.456;11.064;2023-05-18T00:15:02;16.83;63.61
68746;SHT31;66104;45.456;11.064;2023-05-18T00:17:43;16.80;63.74
68746;SHT31;66104;45.456;11.064;2023-05-18T00:20:21;16.79;63.62
68746;SHT31;66104;45.456;11.064;2023-05-18T00:22:59;16.80;63.13
68746;SHT31;66104;45.456;11.064;2023-05-18T00:25:45;16.77;63.46
68746;SHT31;66104;45.456;11.064;2023-05-18T00:28:24;16.74;63.26
68746;SHT31;66104;45.456;11.064;2023-05-18T00:31:01;16.75;63.12
68746;SHT31;66104;45.456;11.064;2023-05-18T00:33:42;16.78;63.31
68746;SHT31;66104;45.456;11.064;2023-05-18T00:36:23;16.79;64.81
68746;SHT31;66104;45.456;11.064;2023-05-18T00:39:03;16.81;65.57
68746;SHT31;66104;45.456;11.064;2023-05-18T00:41:42;16.81;66.01
68746;SHT31;66104;45.456;11.064;2023-05-18T00:44:25;16.80;66.27
68746;SHT31;66104;45.456;11.064;2023-05-18T00:47:04;16.80;66.34
68746;SHT31;66104;45.456;11.064;2023-05-18T00:49:47;16.77;64.97
68746;SHT31;66104;45.456;11.064;2023-05-18T00:52:26;16.75;64.37
68746;SHT31;66104;45.456;11.064;2023-05-18T00:55:07;16.72;63.79
68746;SHT31;66104;45.456;11.064;2023-05-18T00:57:47;16.73;64.29
68746;SHT31;66104;45.456;11.064;2023-05-18T01:00:30;16.75;64.13
68746;SHT31;66104;45.456;11.064;2023-05-18T01:03:12;16.75;62.44
68746;SHT31;66104;45.456;11.064;2023-05-18T01:05:52;16.78;62.12
68746;SHT31;66104;45.456;11.064;2023-05-18T01:08:34;16.80;62.38
68746;SHT31;66104;45.456;11.064;2023-05-18T01:11:18;16.82;62.81
68746;SHT31;66104;45.456;11.064;2023-05-18T01:14:15;16.84;63.71
68746;SHT31;66104;45.456;11.064;2023-05-18T01:17:04;16.84;64.42
68746;SHT31;66104;45.456;11.064;2023-05-18T01:23:15;16.83;63.88
68746;SHT31;66104;45.456;11.064;2023-05-18T01:26:18;16.83;64.29
68746;SHT31;66104;45.456;11.064;2023-05-18T01:29:03;16.84;64.07
68746;SHT31;66104;45.456;11.064;2023-05-18T01:31:44;16.83;64.01
68746;SHT31;66104;45.456;11.064;2023-05-18T01:34:22;16.83;63.33
68746;SHT31;66104;45.456;11.064;2023-05-18T01:37:04;16.86;63.97
68746;SHT31;66104;45.456;11.064;2023-05-18T01:39:45;16.87;64.23
68746;SHT31;66104;45.456;11.064;2023-05-18T01:42:29;16.87;63.90
68746;SHT31;66104;45.456;11.064;2023-05-18T01:45:16;16.86;63.51
68746;SHT31;66104;45.456;11.064;2023-05-18T01:48:05;16.87;63.64
68746;SHT31;66104;45.456;11.064;2023-05-18T01:50:49;16.82;63.22
68746;SHT31;66104;45.456;11.064;2023-05-18T01:53:32;16.81;63.61
68746;SHT31;66104;45.456;11.064;2023-05-18T01:56:25;16.76;63.96
68746;SHT31;66104;45.456;11.064;2023-05-18T01:59:12;16.72;63.77
68746;SHT31;66104;45.456;11.064;2023-05-18T02:01:53;16.66;62.23
68746;SHT31;66104;45.456;11.064;2023-05-18T02:04:37;16.59;61.48
68746;SHT31;66104;45.456;11.064;2023-05-18T02:07:18;16.54;60.64
68746;SHT31;66104;45.456;11.064;2023-05-18T02:10:00;16.51;61.22
68746;SHT31;66104;45.456;11.064;2023-05-18T02:12:48;16.55;62.78
68746;SHT31;66104;45.456;11.064;2023-05-18T02:15:30;16.60;64.99
68746;SHT31;66104;45.456;11.064;2023-05-18T02:18:13;16.57;66.27
68746;SHT31;66104;45.456;11.064;2023-05-18T02:20:58;16.55;66.67
68746;SHT31;66104;45.456;11.064;2023-05-18T02:23:39;16.54;66.87
68746;SHT31;66104;45.456;11.064;2023-05-18T02:26:20;16.52;66.54
68746;SHT31;66104;45.456;11.064;2023-05-18T02:28:59;16.49;66.21
68746;SHT31;66104;45.456;11.064;2023-05-18T02:31:41;16.42;65.63
68746;SHT31;66104;45.456;11.064;2023-05-18T02:34:19;16.39;65.58
68746;SHT31;66104;45.456;11.064;2023-05-18T02:37:02;16.39;65.33
